createdAt,value
2022-09-11T00:00:53.578Z,100.00
2022-09-11T00:03:21.540Z,100.00
2022-09-11T00:05:48.114Z,100.00
2022-09-11T00:08:19.521Z,100.00
2022-09-11T00:10:48.372Z,100.00
2022-09-11T00:13:21.423Z,100.00
2022-09-11T00:15:50.126Z,100.00
2022-09-11T00:18:21.631Z,100.00
2022-09-11T00:20:50.054Z,100.00
2022-09-11T00:23:18.769Z,100.00
2022-09-11T00:25:46.805Z,100.00
2022-09-11T00:28:19.786Z,100.00
2022-09-11T00:30:47.851Z,100.00
2022-09-11T00:33:15.663Z,100.00
2022-09-11T00:35:42.580Z,100.00
2022-09-11T00:38:10.045Z,100.00
2022-09-11T00:40:46.498Z,100.00
2022-09-11T00:43:16.671Z,100.00
2022-09-11T00:45:50.249Z,100.00
2022-09-11T00:48:20.177Z,100.00
2022-09-11T00:50:48.077Z,100.00
2022-09-11T00:53:17.637Z,100.00
2022-09-11T00:55:50.698Z,100.00
2022-09-11T00:58:21.739Z,100.00
2022-09-11T01:00:49.150Z,100.00
2022-09-11T01:03:15.722Z,100.00
2022-09-11T01:05:43.461Z,100.00
2022-09-11T01:08:10.610Z,100.00
2022-09-11T01:10:59.382Z,100.00
2022-09-11T01:13:45.170Z,100.00
2022-09-11T01:16:24.122Z,100.00
2022-09-11T01:19:01.053Z,100.00
2022-09-11T01:21:46.817Z,100.00
2022-09-11T01:24:25.833Z,100.00
2022-09-11T01:27:00.418Z,100.00
2022-09-11T01:29:40.083Z,100.00
2022-09-11T01:32:22.829Z,100.00
2022-09-11T01:35:04.400Z,100.00
2022-09-11T01:37:40.143Z,100.00
2022-09-11T01:40:36.797Z,100.00
2022-09-11T01:43:07.288Z,100.00
2022-09-11T01:45:34.999Z,100.00
2022-09-11T01:48:02.420Z,100.00
2022-09-11T01:50:31.261Z,100.00
2022-09-11T01:53:01.054Z,100.00
2022-09-11T01:55:34.739Z,100.00
2022-09-11T01:58:11.098Z,100.00
2022-09-11T02:00:44.711Z,100.00
2022-09-11T02:03:23.157Z,100.00
2022-09-11T02:05:53.836Z,100.00
2022-09-11T02:08:28.363Z,100.00
2022-09-11T02:11:03.663Z,100.00
2022-09-11T02:13:32.001Z,100.00
2022-09-11T02:16:06.013Z,100.00
2022-09-11T02:18:43.382Z,100.00
2022-09-11T02:21:10.265Z,100.00
2022-09-11T02:23:39.893Z,100.00
2022-09-11T02:26:08.501Z,100.00
2022-09-11T02:28:37.433Z,100.00
2022-09-11T02:31:04.407Z,100.00
2022-09-11T02:33:35.887Z,100.00
2022-09-11T02:36:11.202Z,100.00
2022-09-11T02:38:49.573Z,100.00
2022-09-11T02:41:21.763Z,100.00
2022-09-11T02:44:11.234Z,100.00
2022-09-11T02:46:58.467Z,100.00
2022-09-11T02:49:37.148Z,100.00
2022-09-11T02:52:28.303Z,100.00
2022-09-11T02:55:21.063Z,100.00
2022-09-11T02:57:53.139Z,100.00
2022-09-11T03:00:19.792Z,100.00
2022-09-11T03:02:47.370Z,100.00
2022-09-11T03:05:14.260Z,100.00
2022-09-11T03:07:41.361Z,100.00
2022-09-11T03:10:11.237Z,100.00
2022-09-11T03:12:39.151Z,100.00
2022-09-11T03:15:06.477Z,100.00
2022-09-11T03:17:33.526Z,100.00
2022-09-11T03:20:00.139Z,100.00
2022-09-11T03:22:26.738Z,100.00
2022-09-11T03:24:53.668Z,100.00
2022-09-11T03:27:21.787Z,100.00
2022-09-11T03:29:48.392Z,100.00
2022-09-11T03:32:16.178Z,100.00
2022-09-11T03:34:42.862Z,100.00
2022-09-11T03:37:09.526Z,100.00
2022-09-11T03:39:36.138Z,100.00
2022-09-11T03:42:02.920Z,100.00
2022-09-11T03:44:29.871Z,100.00
2022-09-11T03:46:57.711Z,100.00
2022-09-11T03:49:24.763Z,100.00
2022-09-11T03:51:51.479Z,100.00
2022-09-11T03:54:20.945Z,100.00
2022-09-11T03:56:47.839Z,100.00
2022-09-11T03:59:15.603Z,100.00
2022-09-11T04:01:44.273Z,100.00
2022-09-11T04:04:10.968Z,100.00
2022-09-11T04:06:41.869Z,100.00
2022-09-11T04:09:09.374Z,100.00
2022-09-11T04:11:38.969Z,100.00
2022-09-11T04:14:11.876Z,100.00
2022-09-11T04:16:40.688Z,100.00
2022-09-11T04:19:07.509Z,100.00
2022-09-11T04:21:34.813Z,100.00
2022-09-11T04:24:01.832Z,100.00
2022-09-11T04:26:31.610Z,100.00
2022-09-11T04:29:05.867Z,100.00
2022-09-11T04:31:35.295Z,100.00
2022-09-11T04:34:02.045Z,100.00
2022-09-11T04:36:32.127Z,100.00
2022-09-11T04:39:00.179Z,100.00
2022-09-11T04:41:28.208Z,100.00
2022-09-11T04:44:02.383Z,100.00
2022-09-11T04:46:31.322Z,100.00
2022-09-11T04:48:59.995Z,100.00
2022-09-11T04:51:30.114Z,100.00
2022-09-11T04:53:58.964Z,100.00
2022-09-11T04:56:34.240Z,100.00
2022-09-11T04:59:13.518Z,100.00
2022-09-11T05:01:44.110Z,100.00
2022-09-11T05:04:12.863Z,100.00
2022-09-11T05:06:41.377Z,100.00
2022-09-11T05:09:13.058Z,100.00
2022-09-11T05:11:39.643Z,100.00
2022-09-11T05:14:06.842Z,100.00
2022-09-11T05:16:36.578Z,100.00
2022-09-11T05:19:04.372Z,100.00
2022-09-11T05:21:33.649Z,100.00
2022-09-11T05:24:01.472Z,100.00
2022-09-11T05:26:34.597Z,100.00
2022-09-11T05:29:05.120Z,100.00
2022-09-11T05:31:33.558Z,100.00
2022-09-11T05:34:01.916Z,100.00
2022-09-11T05:36:31.148Z,100.00
2022-09-11T05:38:58.579Z,100.00
2022-09-11T05:41:26.160Z,100.00
2022-09-11T05:43:52.883Z,100.00
2022-09-11T05:46:22.365Z,100.00
2022-09-11T05:48:53.660Z,100.00
2022-09-11T05:51:21.771Z,100.00
2022-09-11T05:53:54.084Z,100.00
2022-09-11T05:56:25.445Z,100.00
2022-09-11T05:58:58.023Z,100.00
2022-09-11T06:01:31.597Z,100.00
2022-09-11T06:04:12.268Z,100.00
2022-09-11T06:06:40.691Z,100.00
2022-09-11T06:09:07.949Z,100.00
2022-09-11T06:11:34.914Z,100.00
2022-09-11T06:14:02.273Z,100.00
2022-09-11T06:16:31.529Z,100.00
2022-09-11T06:19:05.707Z,100.00
2022-09-11T06:21:32.259Z,100.00
2022-09-11T06:24:07.995Z,100.00
2022-09-11T06:26:35.501Z,100.00
2022-09-11T06:29:03.039Z,100.00
2022-09-11T06:31:30.705Z,100.00
2022-09-11T06:33:57.281Z,100.00
2022-09-11T06:36:30.135Z,100.00
2022-09-11T06:38:58.731Z,100.00
2022-09-11T06:41:28.333Z,100.00
2022-09-11T06:44:15.271Z,100.00
2022-09-11T06:46:42.243Z,100.00
2022-09-11T06:49:10.523Z,100.00
2022-09-11T06:51:57.015Z,100.00
2022-09-11T06:54:23.575Z,100.00
2022-09-11T06:56:52.093Z,100.00
2022-09-11T06:59:18.789Z,100.00
2022-09-11T07:01:45.406Z,100.00
2022-09-11T07:04:13.104Z,100.00
2022-09-11T07:06:41.306Z,100.00
2022-09-11T07:09:09.727Z,100.00
2022-09-11T07:11:44.915Z,100.00
2022-09-11T07:14:11.707Z,100.00
2022-09-11T07:16:41.164Z,100.00
2022-09-11T07:19:11.332Z,100.00
2022-09-11T07:21:39.711Z,100.00
2022-09-11T07:24:07.087Z,100.00
2022-09-11T07:26:37.922Z,100.00
2022-09-11T07:29:11.360Z,100.00
2022-09-11T07:31:38.670Z,100.00
2022-09-11T07:34:05.623Z,100.00
2022-09-11T07:36:34.743Z,100.00
2022-09-11T07:39:04.333Z,100.00
2022-09-11T07:41:36.200Z,100.00
2022-09-11T07:44:09.310Z,100.00
2022-09-11T07:46:40.253Z,100.00
2022-09-11T07:49:10.015Z,100.00
2022-09-11T07:51:37.839Z,100.00
2022-09-11T07:54:06.270Z,100.00
2022-09-11T07:56:34.834Z,100.00
2022-09-11T07:59:07.713Z,100.00
2022-09-11T08:01:35.614Z,100.00
2022-09-11T08:04:06.095Z,100.00
2022-09-11T08:06:35.255Z,100.00
2022-09-11T08:09:15.764Z,100.00
2022-09-11T08:11:50.300Z,100.00
2022-09-11T08:14:18.474Z,100.00
2022-09-11T08:16:48.389Z,100.00
2022-09-11T08:19:20.571Z,100.00
2022-09-11T08:21:52.612Z,100.00
2022-09-11T08:24:22.628Z,100.00
2022-09-11T08:26:51.559Z,100.00
2022-09-11T08:29:19.226Z,100.00
2022-09-11T08:31:47.122Z,63.24
2022-09-11T08:34:15.401Z,100.00
2022-09-11T08:36:41.952Z,100.00
2022-09-11T08:39:09.822Z,100.00
2022-09-11T08:41:49.103Z,100.00
2022-09-11T08:44:28.195Z,100.00
2022-09-11T08:47:13.874Z,100.00
2022-09-11T08:49:49.491Z,100.00
2022-09-11T08:52:16.887Z,100.00
2022-09-11T08:54:46.328Z,100.00
2022-09-11T08:57:22.277Z,100.00
2022-09-11T09:00:19.111Z,100.00
2022-09-11T09:03:06.970Z,100.00
2022-09-11T09:05:54.869Z,100.00
2022-09-11T09:08:27.729Z,100.00
2022-09-11T09:11:08.516Z,100.00
2022-09-11T09:14:02.822Z,100.00
2022-09-11T09:16:39.348Z,100.00
2022-09-11T09:19:11.108Z,100.00
2022-09-11T09:21:42.152Z,100.00
2022-09-11T09:24:19.496Z,100.00
2022-09-11T09:26:52.728Z,100.00
2022-09-11T09:29:24.943Z,100.00
2022-09-11T09:31:59.150Z,100.00
2022-09-11T09:34:31.149Z,100.00
2022-09-11T09:37:04.293Z,100.00
2022-09-11T09:39:31.867Z,100.00
2022-09-11T09:41:59.078Z,82.18
2022-09-11T09:44:46.276Z,80.39
2022-09-11T09:47:13.898Z,80.48
2022-09-11T09:49:40.814Z,80.66
2022-09-11T09:52:17.075Z,80.89
2022-09-11T09:54:44.333Z,80.96
2022-09-11T09:57:11.760Z,80.74
2022-09-11T09:59:43.800Z,80.81
2022-09-11T10:02:10.370Z,80.88
2022-09-11T10:04:36.964Z,81.13
2022-09-11T10:07:11.909Z,81.14
2022-09-11T10:09:46.864Z,81.12
2022-09-11T10:12:22.193Z,81.25
2022-09-11T10:14:52.736Z,81.42
2022-09-11T10:17:21.108Z,81.66
2022-09-11T10:19:47.839Z,81.78
2022-09-11T10:22:32.410Z,81.72
2022-09-11T10:25:10.936Z,81.62
2022-09-11T10:27:45.668Z,81.69
2022-09-11T10:30:28.090Z,81.49
2022-09-11T10:32:55.265Z,81.38
2022-09-11T10:35:25.781Z,81.40
2022-09-11T10:38:18.899Z,80.99
2022-09-11T10:40:57.841Z,80.62
2022-09-11T10:43:27.603Z,80.31
2022-09-11T10:46:26.048Z,80.73
2022-09-11T10:48:55.228Z,80.82
2022-09-11T10:51:24.304Z,80.90
2022-09-11T10:54:04.397Z,80.94
2022-09-11T10:56:33.278Z,80.81
2022-09-11T10:59:03.842Z,80.94
2022-09-11T11:01:30.435Z,80.94
2022-09-11T11:03:57.089Z,80.85
2022-09-11T11:07:04.676Z,79.85
2022-09-11T11:09:57.229Z,80.19
2022-09-11T11:12:47.659Z,80.46
2022-09-11T11:15:34.848Z,79.66
2022-09-11T11:18:26.369Z,100.00
2022-09-11T11:21:28.541Z,100.00
2022-09-11T11:24:12.170Z,79.66
2022-09-11T11:26:56.792Z,79.02
2022-09-11T11:29:54.967Z,78.78
2022-09-11T11:32:40.470Z,100.00
2022-09-11T11:35:28.311Z,100.00
2022-09-11T11:38:12.723Z,100.00
2022-09-11T11:40:43.811Z,100.00
2022-09-11T11:43:12.831Z,100.00
2022-09-11T11:45:44.955Z,100.00
2022-09-11T11:48:17.700Z,100.00
2022-09-11T11:50:47.445Z,100.00
2022-09-11T11:53:19.995Z,100.00
2022-09-11T11:55:57.186Z,100.00
2022-09-11T11:58:39.425Z,100.00
2022-09-11T12:01:12.155Z,100.00
2022-09-11T12:03:42.372Z,100.00
2022-09-11T12:06:08.911Z,100.00
2022-09-11T12:08:45.522Z,100.00
2022-09-11T12:11:15.138Z,100.00
2022-09-11T12:13:44.127Z,100.00
2022-09-11T12:16:19.175Z,100.00
2022-09-11T12:19:19.737Z,100.00
2022-09-11T12:21:52.471Z,100.00
2022-09-11T12:24:44.316Z,78.62
2022-09-11T12:27:36.190Z,74.53
2022-09-11T12:30:29.064Z,100.00
2022-09-11T12:32:57.126Z,100.00
2022-09-11T12:35:43.301Z,100.00
2022-09-11T12:38:09.830Z,100.00
2022-09-11T12:40:53.252Z,100.00
2022-09-11T12:43:35.165Z,100.00
2022-09-11T12:46:03.394Z,100.00
2022-09-11T12:48:41.265Z,100.00
2022-09-11T12:51:19.463Z,100.00
2022-09-11T12:53:50.282Z,100.00
2022-09-11T12:56:19.523Z,100.00
2022-09-11T12:58:49.940Z,71.22
2022-09-11T13:01:30.624Z,70.54
2022-09-11T13:04:09.379Z,70.54
2022-09-11T13:06:40.517Z,100.00
2022-09-11T13:09:07.660Z,100.00
2022-09-11T13:11:38.243Z,100.00
2022-09-11T13:14:30.389Z,100.00
2022-09-11T13:16:58.866Z,100.00
2022-09-11T13:19:32.838Z,100.00
2022-09-11T13:21:59.814Z,100.00
2022-09-11T13:24:32.516Z,100.00
2022-09-11T13:27:09.461Z,100.00
2022-09-11T13:29:37.174Z,100.00
2022-09-11T13:32:14.198Z,100.00
2022-09-11T13:34:47.436Z,100.00
2022-09-11T13:37:21.883Z,100.00
2022-09-11T13:39:48.517Z,100.00
2022-09-11T13:42:17.847Z,100.00
2022-09-11T13:44:47.049Z,100.00
2022-09-11T13:47:22.308Z,66.82
2022-09-11T13:49:51.419Z,66.59
2022-09-11T13:52:19.091Z,100.00
2022-09-11T13:54:48.533Z,100.00
2022-09-11T13:57:21.032Z,100.00
2022-09-11T13:59:56.755Z,100.00
2022-09-11T14:02:35.658Z,100.00
2022-09-11T14:05:08.533Z,100.00
2022-09-11T14:07:43.286Z,100.00
2022-09-11T14:10:39.555Z,100.00
2022-09-11T14:13:20.403Z,100.00
2022-09-11T14:16:00.558Z,100.00
2022-09-11T14:18:41.862Z,100.00
2022-09-11T14:21:14.033Z,100.00
2022-09-11T14:23:43.988Z,100.00
2022-09-11T14:26:17.039Z,100.00
2022-09-11T14:28:56.833Z,100.00
2022-09-11T14:31:44.718Z,100.00
2022-09-11T14:34:15.134Z,100.00
2022-09-11T14:36:46.475Z,100.00
2022-09-11T14:39:24.363Z,100.00
2022-09-11T14:41:52.292Z,100.00
2022-09-11T14:44:19.990Z,100.00
2022-09-11T14:46:46.609Z,100.00
2022-09-11T14:49:13.222Z,100.00
2022-09-11T14:51:40.959Z,100.00
2022-09-11T14:54:13.174Z,100.00
2022-09-11T14:56:40.329Z,100.00
2022-09-11T14:59:07.006Z,100.00
2022-09-11T15:01:33.746Z,100.00
2022-09-11T15:04:01.808Z,100.00
2022-09-11T15:06:28.371Z,100.00
2022-09-11T15:08:54.914Z,100.00
2022-09-11T15:11:21.444Z,100.00
2022-09-11T15:14:13.461Z,100.00
2022-09-11T15:16:35.329Z,100.00
2022-09-11T15:19:01.865Z,100.00
2022-09-11T15:21:28.620Z,100.00
2022-09-11T15:23:55.641Z,100.00
2022-09-11T15:26:22.205Z,100.00
2022-09-11T15:28:50.931Z,100.00
2022-09-11T15:31:18.554Z,100.00
2022-09-11T15:33:52.973Z,100.00
2022-09-11T15:36:21.357Z,100.00
2022-09-11T15:38:53.249Z,100.00
2022-09-11T15:41:21.935Z,100.00
2022-09-11T15:43:50.584Z,100.00
2022-09-11T15:46:21.910Z,100.00
2022-09-11T15:48:49.320Z,100.00
2022-09-11T15:51:24.032Z,100.00
2022-09-11T15:53:52.340Z,100.00
2022-09-11T15:56:25.729Z,100.00
2022-09-11T15:58:52.724Z,66.59
2022-09-11T16:01:25.705Z,100.00
2022-09-11T16:03:57.446Z,100.00
2022-09-11T16:06:26.502Z,100.00
2022-09-11T16:08:57.611Z,100.00
2022-09-11T16:11:25.139Z,100.00
2022-09-11T16:13:53.531Z,100.00
2022-09-11T16:16:20.364Z,100.00
2022-09-11T16:18:47.126Z,100.00
2022-09-11T16:21:15.025Z,100.00
2022-09-11T16:23:41.734Z,100.00
2022-09-11T16:26:11.378Z,100.00
2022-09-11T16:28:39.571Z,100.00
2022-09-11T16:31:07.228Z,100.00
2022-09-11T16:33:40.486Z,70.11
2022-09-11T16:36:09.836Z,67.45
2022-09-11T16:38:38.547Z,100.00
2022-09-11T16:41:12.465Z,100.00
2022-09-11T16:43:40.353Z,100.00
2022-09-11T16:46:08.644Z,100.00
2022-09-11T16:48:37.087Z,100.00
2022-09-11T16:51:03.802Z,100.00
2022-09-11T16:53:34.301Z,100.00
2022-09-11T16:56:08.616Z,100.00
2022-09-11T16:58:35.392Z,100.00
2022-09-11T17:01:08.903Z,100.00
2022-09-11T17:03:41.354Z,100.00
2022-09-11T17:06:08.877Z,100.00
2022-09-11T17:08:36.681Z,100.00
2022-09-11T17:11:04.448Z,100.00
2022-09-11T17:13:31.357Z,100.00
2022-09-11T17:16:06.837Z,100.00
2022-09-11T17:18:33.500Z,100.00
2022-09-11T17:21:05.016Z,100.00
2022-09-11T17:23:32.729Z,100.00
2022-09-11T17:25:59.344Z,100.00
2022-09-11T17:28:26.574Z,100.00
2022-09-11T17:30:53.117Z,100.00
2022-09-11T17:33:19.783Z,100.00
2022-09-11T17:35:47.282Z,100.00
2022-09-11T17:38:13.805Z,100.00
2022-09-11T17:40:41.420Z,100.00
2022-09-11T17:43:07.973Z,100.00
2022-09-11T17:45:34.501Z,100.00
2022-09-11T17:48:01.659Z,100.00
2022-09-11T17:50:28.183Z,100.00
2022-09-11T17:52:54.734Z,100.00
2022-09-11T17:55:21.642Z,100.00
2022-09-11T17:57:54.437Z,100.00
2022-09-11T18:00:21.137Z,100.00
2022-09-11T18:02:50.068Z,100.00
2022-09-11T18:05:16.665Z,100.00
2022-09-11T18:07:43.202Z,100.00
2022-09-11T18:10:09.915Z,100.00
2022-09-11T18:12:36.561Z,100.00
2022-09-11T18:15:03.868Z,100.00
2022-09-11T18:17:30.452Z,100.00
2022-09-11T18:19:57.004Z,100.00
2022-09-11T18:22:23.621Z,100.00
2022-09-11T18:24:53.147Z,100.00
2022-09-11T18:27:19.969Z,100.00
2022-09-11T18:29:46.622Z,100.00
2022-09-11T18:32:13.152Z,100.00
2022-09-11T18:34:39.716Z,100.00
2022-09-11T18:37:07.807Z,100.00
2022-09-11T18:39:34.336Z,100.00
2022-09-11T18:42:01.884Z,100.00
2022-09-11T18:44:28.795Z,100.00
2022-09-11T18:46:55.593Z,100.00
2022-09-11T18:49:22.571Z,100.00
2022-09-11T18:51:49.631Z,100.00
2022-09-11T18:54:20.124Z,100.00
2022-09-11T18:56:48.617Z,100.00
2022-09-11T18:59:15.644Z,100.00
2022-09-11T19:01:42.421Z,100.00
2022-09-11T19:04:10.861Z,100.00
2022-09-11T19:06:41.086Z,100.00
2022-09-11T19:09:10.436Z,100.00
2022-09-11T19:11:37.700Z,100.00
2022-09-11T19:14:06.829Z,100.00
2022-09-11T19:16:34.252Z,100.00
2022-09-11T19:19:01.108Z,100.00
2022-09-11T19:21:27.664Z,100.00
2022-09-11T19:23:57.667Z,100.00
2022-09-11T19:26:32.720Z,100.00
2022-09-11T19:29:00.274Z,100.00
2022-09-11T19:31:29.415Z,100.00
2022-09-11T19:33:57.034Z,100.00
2022-09-11T19:36:25.893Z,100.00
2022-09-11T19:38:55.864Z,100.00
2022-09-11T19:41:25.930Z,100.00
2022-09-11T19:43:54.109Z,100.00
2022-09-11T19:46:24.183Z,100.00
2022-09-11T19:49:00.335Z,100.00
2022-09-11T19:51:29.347Z,100.00
2022-09-11T19:53:57.577Z,100.00
2022-09-11T19:56:25.111Z,100.00
2022-09-11T19:58:52.030Z,100.00
2022-09-11T20:01:23.918Z,100.00
2022-09-11T20:03:53.007Z,100.00
2022-09-11T20:06:21.709Z,100.00
2022-09-11T20:08:49.903Z,100.00
2022-09-11T20:11:19.725Z,100.00
2022-09-11T20:13:46.283Z,100.00
2022-09-11T20:16:20.133Z,100.00
2022-09-11T20:18:47.049Z,100.00
2022-09-11T20:21:15.817Z,100.00
2022-09-11T20:23:43.836Z,100.00
2022-09-11T20:26:17.374Z,100.00
2022-09-11T20:28:45.254Z,100.00
2022-09-11T20:31:22.870Z,100.00
2022-09-11T20:33:49.949Z,100.00
2022-09-11T20:36:17.343Z,100.00
2022-09-11T20:38:44.410Z,100.00
2022-09-11T20:41:12.679Z,100.00
2022-09-11T20:43:40.216Z,100.00
2022-09-11T20:46:07.210Z,100.00
2022-09-11T20:48:34.140Z,100.00
2022-09-11T20:51:19.093Z,100.00
2022-09-11T20:53:45.826Z,100.00
2022-09-11T20:56:14.744Z,100.00
2022-09-11T20:58:41.494Z,100.00
2022-09-11T21:01:10.513Z,100.00
2022-09-11T21:03:37.159Z,100.00
2022-09-11T21:06:07.962Z,100.00
2022-09-11T21:08:35.105Z,100.00
2022-09-11T21:11:05.372Z,100.00
2022-09-11T21:13:39.016Z,100.00
2022-09-11T21:16:08.031Z,100.00
2022-09-11T21:18:34.937Z,100.00
2022-09-11T21:21:01.814Z,100.00
2022-09-11T21:23:28.548Z,100.00
2022-09-11T21:25:55.167Z,100.00
2022-09-11T21:28:22.155Z,100.00
2022-09-11T21:30:48.846Z,100.00
2022-09-11T21:33:15.455Z,100.00
2022-09-11T21:35:42.275Z,100.00
2022-09-11T21:38:08.889Z,100.00
2022-09-11T21:40:35.499Z,100.00
2022-09-11T21:43:02.080Z,100.00
2022-09-11T21:45:28.654Z,100.00
2022-09-11T21:47:55.236Z,100.00
2022-09-11T21:50:21.775Z,100.00
2022-09-11T21:52:48.633Z,100.00
2022-09-11T21:55:15.603Z,100.00
2022-09-11T21:57:42.181Z,100.00
2022-09-11T22:00:11.548Z,100.00
2022-09-11T22:02:38.343Z,100.00
2022-09-11T22:05:05.376Z,100.00
2022-09-11T22:07:32.457Z,100.00
2022-09-11T22:09:59.439Z,100.00
2022-09-11T22:12:26.089Z,100.00
2022-09-11T22:14:54.845Z,100.00
2022-09-11T22:17:22.209Z,100.00
2022-09-11T22:19:49.244Z,100.00
2022-09-11T22:22:15.970Z,100.00
2022-09-11T22:24:42.617Z,100.00
2022-09-11T22:27:09.803Z,100.00
2022-09-11T22:29:37.161Z,100.00
2022-09-11T22:32:04.898Z,100.00
2022-09-11T22:34:35.728Z,100.00
2022-09-11T22:37:02.799Z,100.00
2022-09-11T22:39:31.794Z,100.00
2022-09-11T22:41:59.691Z,100.00
2022-09-11T22:44:26.602Z,100.00
2022-09-11T22:46:53.433Z,100.00
2022-09-11T22:49:19.980Z,100.00
2022-09-11T22:51:46.641Z,100.00
2022-09-11T22:54:13.944Z,100.00
2022-09-11T22:56:40.547Z,100.00
2022-09-11T22:59:08.109Z,100.00
2022-09-11T23:01:35.215Z,100.00
2022-09-11T23:04:01.930Z,100.00
2022-09-11T23:06:47.254Z,100.00
2022-09-11T23:09:16.871Z,100.00
2022-09-11T23:11:45.146Z,100.00
2022-09-11T23:14:14.558Z,100.00
2022-09-11T23:16:41.929Z,100.00
2022-09-11T23:19:08.619Z,100.00
2022-09-11T23:21:35.953Z,100.00
2022-09-11T23:24:06.108Z,100.00
2022-09-11T23:26:33.304Z,100.00
2022-09-11T23:29:00.173Z,100.00
2022-09-11T23:31:29.857Z,100.00
2022-09-11T23:33:59.515Z,100.00
2022-09-11T23:36:27.249Z,100.00
2022-09-11T23:38:53.911Z,100.00
2022-09-11T23:41:20.853Z,100.00
2022-09-11T23:43:47.743Z,100.00
2022-09-11T23:46:14.698Z,100.00
2022-09-11T23:48:41.879Z,100.00
2022-09-11T23:51:10.336Z,100.00
2022-09-11T23:53:39.324Z,100.00
2022-09-11T23:56:10.519Z,100.00
2022-09-11T23:58:45.794Z,100.00
